createdAt,value
2023-01-03T00:00:59.324Z,71.63
2023-01-03T00:03:01.439Z,71.74
2023-01-03T00:05:04.566Z,72.13
2023-01-03T00:07:06.445Z,72.35
2023-01-03T00:09:11.104Z,72.59
2023-01-03T00:11:17.391Z,72.22
2023-01-03T00:13:20.360Z,72.24
2023-01-03T00:15:23.446Z,72.55
2023-01-03T00:17:25.696Z,72.70
2023-01-03T00:19:29.480Z,72.85
2023-01-03T00:21:31.358Z,72.90
2023-01-03T00:23:35.405Z,73.20
2023-01-03T00:25:38.297Z,72.95
2023-01-03T00:27:40.209Z,73.03
2023-01-03T00:29:43.602Z,73.26
2023-01-03T00:31:45.785Z,73.42
2023-01-03T00:33:47.743Z,73.16
2023-01-03T00:35:49.710Z,73.25
2023-01-03T00:37:51.611Z,73.22
2023-01-03T00:39:54.520Z,73.06
2023-01-03T00:41:56.505Z,73.24
2023-01-03T00:43:58.642Z,73.43
2023-01-03T00:46:01.288Z,73.46
2023-01-03T00:48:03.258Z,73.21
2023-01-03T00:50:05.481Z,72.97
2023-01-03T00:52:10.664Z,73.89
2023-01-03T00:54:14.268Z,73.65
2023-01-03T00:56:21.678Z,73.78
2023-01-03T00:58:23.674Z,74.05
2023-01-03T01:00:25.611Z,73.74
2023-01-03T01:02:27.757Z,73.83
2023-01-03T01:04:31.995Z,73.84
2023-01-03T01:06:36.468Z,73.87
2023-01-03T01:08:38.422Z,73.72
2023-01-03T01:11:02.043Z,73.40
2023-01-03T01:13:04.010Z,73.77
2023-01-03T01:15:06.671Z,73.75
2023-01-03T01:17:09.696Z,73.50
2023-01-03T01:19:11.595Z,73.45
2023-01-03T01:21:33.681Z,73.59
2023-01-03T01:23:37.828Z,72.88
2023-01-03T01:25:39.715Z,73.15
2023-01-03T01:27:42.681Z,72.94
2023-01-03T01:29:45.319Z,73.47
2023-01-03T01:31:48.736Z,73.06
2023-01-03T01:33:53.105Z,72.92
2023-01-03T01:35:55.229Z,72.93
2023-01-03T01:37:59.560Z,72.60
2023-01-03T01:40:01.421Z,72.91
2023-01-03T01:42:31.008Z,73.14
2023-01-03T01:44:40.309Z,73.31
2023-01-03T01:46:43.182Z,73.32
2023-01-03T01:48:45.238Z,73.10
2023-01-03T01:50:57.329Z,72.63
2023-01-03T01:53:05.120Z,72.69
2023-01-03T01:55:11.070Z,72.34
2023-01-03T01:57:18.372Z,72.86
2023-01-03T01:59:21.291Z,72.90
2023-01-03T02:01:24.786Z,73.13
2023-01-03T02:03:27.467Z,73.16
2023-01-03T02:05:32.052Z,73.29
2023-01-03T02:07:34.747Z,72.92
2023-01-03T02:09:36.591Z,72.90
2023-01-03T02:11:50.857Z,73.31
2023-01-03T02:14:36.041Z,73.24
2023-01-03T02:16:52.228Z,73.19
2023-01-03T02:19:20.055Z,73.19
2023-01-03T02:21:27.906Z,73.31
2023-01-03T02:23:47.768Z,73.37
2023-01-03T02:26:27.929Z,73.17
2023-01-03T02:28:41.753Z,73.42
2023-01-03T02:30:50.417Z,73.14
2023-01-03T02:33:16.419Z,73.07
2023-01-03T02:35:27.260Z,73.26
2023-01-03T02:37:50.128Z,73.16
2023-01-03T02:40:12.572Z,73.38
2023-01-03T02:42:42.540Z,73.36
2023-01-03T02:44:58.372Z,73.24
2023-01-03T02:47:09.737Z,73.58
2023-01-03T02:49:30.163Z,73.78
2023-01-03T02:51:46.183Z,73.74
2023-01-03T02:53:51.350Z,74.21
2023-01-03T02:55:58.648Z,74.24
2023-01-03T02:58:09.600Z,74.34
2023-01-03T03:00:15.181Z,74.58
2023-01-03T03:02:22.346Z,75.58
2023-01-03T03:04:25.268Z,75.22
2023-01-03T03:06:41.607Z,75.14
2023-01-03T03:08:48.697Z,74.79
2023-01-03T03:11:11.541Z,75.35
2023-01-03T03:13:26.118Z,75.17
2023-01-03T03:15:36.484Z,75.54
2023-01-03T03:17:39.445Z,75.28
2023-01-03T03:20:06.310Z,75.55
2023-01-03T03:23:08.075Z,76.08
2023-01-03T03:25:14.731Z,76.37
2023-01-03T03:27:38.475Z,76.58
2023-01-03T03:29:40.715Z,76.94
2023-01-03T03:31:47.224Z,76.99
2023-01-03T03:34:07.898Z,77.18
2023-01-03T03:36:40.319Z,78.04
2023-01-03T03:38:44.958Z,77.89
2023-01-03T03:41:18.141Z,77.81
2023-01-03T03:43:54.136Z,77.68
2023-01-03T03:45:56.002Z,78.04
2023-01-03T03:48:12.120Z,78.08
2023-01-03T03:50:45.728Z,77.71
2023-01-03T03:52:52.014Z,77.67
2023-01-03T03:55:10.085Z,78.16
2023-01-03T03:57:33.944Z,78.28
2023-01-03T03:59:37.459Z,78.48
2023-01-03T04:01:41.424Z,78.31
2023-01-03T04:03:44.642Z,78.88
2023-01-03T04:05:52.698Z,78.94
2023-01-03T04:07:55.929Z,79.23
2023-01-03T04:09:57.816Z,79.71
2023-01-03T04:11:59.655Z,80.13
2023-01-03T04:14:02.539Z,80.01
2023-01-03T04:16:05.932Z,80.46
2023-01-03T04:18:07.950Z,80.33
2023-01-03T04:20:11.493Z,80.63
2023-01-03T04:22:13.338Z,80.21
2023-01-03T04:24:15.191Z,79.98
2023-01-03T04:26:17.660Z,80.67
2023-01-03T04:28:20.718Z,80.91
2023-01-03T04:30:23.759Z,80.93
2023-01-03T04:32:25.709Z,81.16
2023-01-03T04:34:28.645Z,80.96
2023-01-03T04:36:32.537Z,81.18
2023-01-03T04:38:34.368Z,81.80
2023-01-03T04:40:38.885Z,81.62
2023-01-03T04:43:03.674Z,81.92
2023-01-03T04:45:06.419Z,82.76
2023-01-03T04:47:08.238Z,82.86
2023-01-03T04:49:10.763Z,83.24
2023-01-03T04:51:12.790Z,82.92
2023-01-03T04:53:15.269Z,82.56
2023-01-03T04:55:17.325Z,82.90
2023-01-03T04:57:19.186Z,83.03
2023-01-03T04:59:21.099Z,82.73
2023-01-03T05:01:25.811Z,81.76
2023-01-03T05:03:28.504Z,81.79
2023-01-03T05:05:30.368Z,81.30
2023-01-03T05:07:32.459Z,80.99
2023-01-03T05:09:35.324Z,80.86
2023-01-03T05:11:37.254Z,81.13
2023-01-03T05:13:40.286Z,81.68
2023-01-03T05:15:42.208Z,82.11
2023-01-03T05:17:45.197Z,82.62
2023-01-03T05:20:07.172Z,83.16
2023-01-03T05:22:27.890Z,82.47
2023-01-03T05:24:50.032Z,82.94
2023-01-03T05:26:52.871Z,82.83
2023-01-03T05:28:55.521Z,82.14
2023-01-03T05:31:01.003Z,82.27
2023-01-03T05:33:03.990Z,82.15
2023-01-03T05:35:06.464Z,81.88
2023-01-03T05:37:08.447Z,81.91
2023-01-03T05:39:10.509Z,82.11
2023-01-03T05:41:14.175Z,81.24
2023-01-03T05:43:16.356Z,81.20
2023-01-03T05:45:19.737Z,81.11
2023-01-03T05:47:21.688Z,81.11
2023-01-03T05:49:23.687Z,80.78
2023-01-03T05:51:25.789Z,80.95
2023-01-03T05:53:27.736Z,80.42
2023-01-03T05:55:30.613Z,80.41
2023-01-03T05:57:35.626Z,80.91
2023-01-03T05:59:37.678Z,81.17
2023-01-03T06:01:39.984Z,80.69
2023-01-03T06:03:46.934Z,80.95
2023-01-03T06:05:50.548Z,80.39
2023-01-03T06:07:52.661Z,80.47
2023-01-03T06:09:54.628Z,80.63
2023-01-03T06:11:57.799Z,80.74
2023-01-03T06:14:00.815Z,80.80
2023-01-03T06:16:32.041Z,80.78
2023-01-03T06:18:37.630Z,80.57
2023-01-03T06:20:40.612Z,80.32
2023-01-03T06:22:42.616Z,80.03
2023-01-03T06:24:44.500Z,79.70
2023-01-03T06:26:46.530Z,79.55
2023-01-03T06:28:48.556Z,79.00
2023-01-03T06:30:51.500Z,79.72
2023-01-03T06:32:53.586Z,79.27
2023-01-03T06:34:55.543Z,79.59
2023-01-03T06:36:58.485Z,79.81
2023-01-03T06:39:01.049Z,79.69
2023-01-03T06:41:03.396Z,79.77
2023-01-03T06:43:05.299Z,79.90
2023-01-03T06:45:26.279Z,79.86
2023-01-03T06:47:47.888Z,80.20
2023-01-03T06:50:08.380Z,80.27
2023-01-03T06:52:35.580Z,80.58
2023-01-03T06:54:38.680Z,80.95
2023-01-03T06:56:41.615Z,80.81
2023-01-03T06:58:47.860Z,80.99
2023-01-03T07:00:57.551Z,81.12
2023-01-03T07:03:02.018Z,81.33
2023-01-03T07:05:12.429Z,81.76
2023-01-03T07:07:14.391Z,81.48
2023-01-03T07:09:16.681Z,81.84
2023-01-03T07:11:18.671Z,81.91
2023-01-03T07:13:39.286Z,81.83
2023-01-03T07:15:47.548Z,81.85
2023-01-03T07:17:49.527Z,82.42
2023-01-03T07:19:52.457Z,82.74
2023-01-03T07:21:54.382Z,82.32
2023-01-03T07:23:59.188Z,82.69
2023-01-03T07:26:01.196Z,82.55
2023-01-03T07:28:07.158Z,82.90
2023-01-03T07:30:11.493Z,83.24
2023-01-03T07:32:17.395Z,83.51
2023-01-03T07:34:21.386Z,83.47
2023-01-03T07:36:23.528Z,83.30
2023-01-03T07:38:25.409Z,83.73
2023-01-03T07:40:27.320Z,83.33
2023-01-03T07:42:47.776Z,83.28
2023-01-03T07:44:49.675Z,82.94
2023-01-03T07:46:52.673Z,82.89
2023-01-03T07:48:59.278Z,83.37
2023-01-03T07:51:01.592Z,83.76
2023-01-03T07:53:05.986Z,83.51
2023-01-03T07:55:09.203Z,83.55
2023-01-03T07:57:11.119Z,83.54
2023-01-03T07:59:13.425Z,83.66
2023-01-03T08:01:18.292Z,83.40
2023-01-03T08:03:21.513Z,83.53
2023-01-03T08:05:23.909Z,84.16
2023-01-03T08:07:25.811Z,83.44
2023-01-03T08:09:46.242Z,83.75
2023-01-03T08:12:06.547Z,83.51
2023-01-03T08:14:08.528Z,83.52
2023-01-03T08:16:13.938Z,83.46
2023-01-03T08:18:20.201Z,83.49
2023-01-03T08:20:23.135Z,82.64
2023-01-03T08:22:25.100Z,82.70
2023-01-03T08:24:27.043Z,82.88
2023-01-03T08:26:29.069Z,82.36
2023-01-03T08:28:31.272Z,82.24
2023-01-03T08:30:36.299Z,82.21
2023-01-03T08:32:39.025Z,82.03
2023-01-03T08:34:44.530Z,81.63
2023-01-03T08:36:55.807Z,81.24
2023-01-03T08:39:09.653Z,80.44
2023-01-03T08:41:14.875Z,79.27
2023-01-03T08:43:17.622Z,79.38
2023-01-03T08:45:22.169Z,79.07
2023-01-03T08:47:31.123Z,78.13
2023-01-03T08:49:35.170Z,77.50
2023-01-03T08:51:37.174Z,76.96
2023-01-03T08:53:40.317Z,76.86
2023-01-03T08:55:48.034Z,76.43
2023-01-03T08:57:55.779Z,75.76
2023-01-03T08:59:57.785Z,75.28
2023-01-03T09:02:00.952Z,74.47
2023-01-03T09:04:03.190Z,73.68
2023-01-03T09:06:06.562Z,73.43
2023-01-03T09:08:08.824Z,72.56
2023-01-03T09:10:12.416Z,72.78
2023-01-03T09:12:14.496Z,72.57
2023-01-03T09:14:16.550Z,71.52
2023-01-03T09:16:20.819Z,71.84
2023-01-03T09:18:22.877Z,71.06
2023-01-03T09:20:24.857Z,69.89
2023-01-03T09:22:27.852Z,67.76
2023-01-03T09:24:29.897Z,66.71
2023-01-03T09:26:31.929Z,65.78
2023-01-03T09:28:34.125Z,64.82
2023-01-03T09:30:36.087Z,65.15
2023-01-03T09:32:38.015Z,64.47
2023-01-03T09:34:39.978Z,64.01
2023-01-03T09:36:42.908Z,63.36
2023-01-03T09:38:45.062Z,63.24
2023-01-03T09:40:48.483Z,63.07
2023-01-03T09:43:10.099Z,62.23
2023-01-03T09:45:15.797Z,61.71
2023-01-03T09:47:22.801Z,62.43
2023-01-03T09:49:24.878Z,61.63
2023-01-03T09:51:50.063Z,61.41
2023-01-03T09:54:14.780Z,60.90
2023-01-03T09:56:36.524Z,60.50
2023-01-03T09:58:58.740Z,59.93
2023-01-03T10:01:34.905Z,59.87
2023-01-03T10:04:11.316Z,59.42
2023-01-03T10:06:31.510Z,58.07
2023-01-03T10:09:05.971Z,58.22
2023-01-03T10:11:15.045Z,58.25
2023-01-03T10:13:44.060Z,58.37
2023-01-03T10:16:15.743Z,57.30
2023-01-03T10:18:33.810Z,56.62
2023-01-03T10:20:42.325Z,56.90
2023-01-03T10:22:49.221Z,57.52
2023-01-03T10:25:15.533Z,57.04
2023-01-03T10:27:22.651Z,58.17
2023-01-03T10:29:25.406Z,58.27
2023-01-03T10:31:50.467Z,58.14
2023-01-03T10:33:52.552Z,58.45
2023-01-03T10:35:54.801Z,58.20
2023-01-03T10:38:01.152Z,58.23
2023-01-03T10:40:05.275Z,58.00
2023-01-03T10:42:07.267Z,58.18
2023-01-03T10:44:32.692Z,58.33
2023-01-03T10:46:50.406Z,58.66
2023-01-03T10:51:55.769Z,57.86
2023-01-03T10:54:01.250Z,57.18
2023-01-03T10:56:05.520Z,56.70
2023-01-03T10:58:34.127Z,57.10
2023-01-03T11:00:40.446Z,56.98
2023-01-03T11:02:47.107Z,57.48
2023-01-03T11:05:12.671Z,57.27
2023-01-03T11:07:17.204Z,57.63
2023-01-03T11:09:19.178Z,57.60
2023-01-03T11:11:37.190Z,57.30
2023-01-03T11:13:43.465Z,57.36
2023-01-03T11:15:45.417Z,58.21
2023-01-03T11:18:01.747Z,57.72
2023-01-03T11:20:18.343Z,58.82
2023-01-03T11:22:45.999Z,59.25
2023-01-03T11:24:58.719Z,59.64
2023-01-03T11:27:10.357Z,60.22
2023-01-03T11:29:14.956Z,59.14
2023-01-03T11:31:45.159Z,59.57
2023-01-03T11:33:55.838Z,58.93
2023-01-03T11:36:06.150Z,60.27
2023-01-03T11:38:29.526Z,60.63
2023-01-03T11:41:05.619Z,60.91
2023-01-03T11:43:39.829Z,60.70
2023-01-03T11:46:06.653Z,59.92
2023-01-03T11:48:30.368Z,60.25
2023-01-03T11:50:52.032Z,61.06
2023-01-03T11:52:53.786Z,61.52
2023-01-03T11:55:30.865Z,60.93
2023-01-03T11:57:51.036Z,60.97
2023-01-03T12:00:17.376Z,61.35
2023-01-03T12:02:32.443Z,60.47
2023-01-03T12:04:47.074Z,59.77
2023-01-03T12:09:55.327Z,60.59
2023-01-03T12:12:04.171Z,60.37
2023-01-03T12:14:24.578Z,60.54
2023-01-03T12:16:42.400Z,60.95
2023-01-03T12:19:11.927Z,61.26
2023-01-03T12:21:36.646Z,61.73
2023-01-03T12:24:06.007Z,62.20
2023-01-03T12:26:15.836Z,61.78
2023-01-03T12:28:23.424Z,61.98
2023-01-03T12:30:31.879Z,62.78
2023-01-03T12:32:56.223Z,62.02
2023-01-03T12:35:19.632Z,62.86
2023-01-03T12:37:29.991Z,63.58
2023-01-03T12:39:33.693Z,63.47
2023-01-03T12:41:47.009Z,63.28
2023-01-03T12:44:04.245Z,62.93
2023-01-03T12:46:24.284Z,62.48
2023-01-03T12:48:45.114Z,63.53
2023-01-03T12:50:52.464Z,63.42
2023-01-03T12:53:36.089Z,63.53
2023-01-03T12:56:06.885Z,64.04
2023-01-03T12:58:14.540Z,64.38
2023-01-03T13:00:38.647Z,64.46
2023-01-03T13:02:40.669Z,65.16
2023-01-03T13:04:44.956Z,64.72
2023-01-03T13:07:06.185Z,65.25
2023-01-03T13:09:17.400Z,65.85
2023-01-03T13:11:29.014Z,65.62
2023-01-03T13:13:33.083Z,65.65
2023-01-03T13:15:37.134Z,65.00
2023-01-03T13:17:46.904Z,66.00
2023-01-03T13:19:52.196Z,65.83
2023-01-03T13:21:54.236Z,65.75
2023-01-03T13:24:02.434Z,66.29
2023-01-03T13:26:07.478Z,66.51
2023-01-03T13:28:20.451Z,67.33
2023-01-03T13:30:32.773Z,67.31
2023-01-03T13:32:49.436Z,67.73
2023-01-03T13:34:54.403Z,68.10
2023-01-03T13:37:08.419Z,68.00
2023-01-03T13:39:39.447Z,67.63
2023-01-03T13:41:43.418Z,68.66
2023-01-03T13:43:50.258Z,68.27
2023-01-03T13:45:55.026Z,68.29
2023-01-03T13:47:58.309Z,68.29
2023-01-03T13:50:00.603Z,68.44
2023-01-03T13:52:05.681Z,68.83
2023-01-03T13:54:13.460Z,68.62
2023-01-03T13:56:15.375Z,68.50
2023-01-03T13:58:39.212Z,69.13
2023-01-03T14:00:47.427Z,68.83
2023-01-03T14:03:16.862Z,69.04
2023-01-03T14:05:37.670Z,68.92
2023-01-03T14:08:17.449Z,69.76
2023-01-03T14:10:44.348Z,70.03
2023-01-03T14:13:17.360Z,69.23
2023-01-03T14:15:26.782Z,69.46
2023-01-03T14:17:48.434Z,69.17
2023-01-03T14:20:03.102Z,70.06
2023-01-03T14:22:30.497Z,69.52
2023-01-03T14:24:48.536Z,70.44
2023-01-03T14:27:06.982Z,70.31
2023-01-03T14:29:19.172Z,70.56
2023-01-03T14:31:29.451Z,70.86
2023-01-03T14:33:43.069Z,71.08
2023-01-03T14:35:45.665Z,70.95
2023-01-03T14:38:06.769Z,71.17
2023-01-03T14:40:20.644Z,71.66
2023-01-03T14:42:25.981Z,71.96
2023-01-03T14:44:29.516Z,71.29
2023-01-03T14:46:34.689Z,71.95
2023-01-03T14:48:38.168Z,72.17
2023-01-03T14:50:43.208Z,72.86
2023-01-03T14:52:56.395Z,72.42
2023-01-03T14:55:04.889Z,73.06
2023-01-03T14:57:17.640Z,73.08
2023-01-03T14:59:23.037Z,73.11
2023-01-03T15:01:28.948Z,73.39
2023-01-03T15:03:37.208Z,73.07
2023-01-03T15:05:41.022Z,73.30
2023-01-03T15:07:44.498Z,73.51
2023-01-03T15:09:46.518Z,73.86
2023-01-03T15:11:57.276Z,74.08
2023-01-03T15:14:14.307Z,74.86
2023-01-03T15:16:46.528Z,74.89
2023-01-03T15:18:49.935Z,75.57
2023-01-03T15:20:56.097Z,75.44
2023-01-03T15:22:59.157Z,75.88
2023-01-03T15:25:16.796Z,76.07
2023-01-03T15:27:43.793Z,77.10
2023-01-03T15:29:45.817Z,76.52
2023-01-03T15:32:11.633Z,77.26
2023-01-03T15:34:41.990Z,77.21
2023-01-03T15:36:56.879Z,77.63
2023-01-03T15:39:25.105Z,77.66
2023-01-03T15:42:12.210Z,78.12
2023-01-03T15:44:29.137Z,78.12
2023-01-03T15:46:44.321Z,78.53
2023-01-03T15:48:56.421Z,78.33
2023-01-03T15:50:58.525Z,78.20
2023-01-03T15:53:01.540Z,78.69
2023-01-03T15:55:13.098Z,78.25
2023-01-03T15:57:21.067Z,78.53
2023-01-03T15:59:34.696Z,77.72
2023-01-03T16:01:42.252Z,77.52
2023-01-03T16:03:50.227Z,77.33
2023-01-03T16:06:03.160Z,77.58
2023-01-03T16:08:32.553Z,77.80
2023-01-03T16:10:42.930Z,77.49
2023-01-03T16:12:50.656Z,77.02
2023-01-03T16:15:00.216Z,76.39
2023-01-03T16:17:04.259Z,76.78
2023-01-03T16:19:34.790Z,76.35
2023-01-03T16:22:09.003Z,76.17
2023-01-03T16:24:18.188Z,76.36
2023-01-03T16:26:20.715Z,75.57
2023-01-03T16:28:25.987Z,75.85
2023-01-03T16:30:36.915Z,76.20
2023-01-03T16:32:43.450Z,76.28
2023-01-03T16:34:47.916Z,76.53
2023-01-03T16:36:54.301Z,76.85
2023-01-03T16:38:56.338Z,77.25
2023-01-03T16:41:09.325Z,77.30
2023-01-03T16:43:21.821Z,77.35
2023-01-03T16:45:27.927Z,77.58
2023-01-03T16:47:36.701Z,78.14
2023-01-03T16:49:41.956Z,78.45
2023-01-03T16:51:57.547Z,78.15
2023-01-03T16:54:00.776Z,77.72
2023-01-03T16:56:08.311Z,76.83
2023-01-03T16:58:16.061Z,76.80
2023-01-03T17:00:31.316Z,77.45
2023-01-03T17:02:40.171Z,77.32
2023-01-03T17:04:42.436Z,77.53
2023-01-03T17:06:45.183Z,77.77
2023-01-03T17:08:55.670Z,77.85
2023-01-03T17:11:17.319Z,77.57
2023-01-03T17:13:27.653Z,77.90
2023-01-03T17:15:47.017Z,77.94
2023-01-03T17:17:49.179Z,78.31
2023-01-03T17:20:06.679Z,78.61
2023-01-03T17:22:23.298Z,78.45
2023-01-03T17:24:34.440Z,78.68
2023-01-03T17:26:36.737Z,78.59
2023-01-03T17:28:53.558Z,78.80
2023-01-03T17:31:05.083Z,79.05
2023-01-03T17:33:06.994Z,78.91
2023-01-03T17:35:12.569Z,79.01
2023-01-03T17:37:58.308Z,78.62
2023-01-03T17:40:17.352Z,78.78
2023-01-03T17:42:20.918Z,79.18
2023-01-03T17:44:22.879Z,78.65
2023-01-03T17:46:47.423Z,79.39
2023-01-03T17:49:24.621Z,79.34
2023-01-03T17:51:27.215Z,79.14
2023-01-03T17:53:34.421Z,78.64
2023-01-03T17:55:41.952Z,78.46
2023-01-03T17:58:19.207Z,79.04
2023-01-03T18:00:33.786Z,78.77
2023-01-03T18:02:52.953Z,78.21
2023-01-03T18:07:34.575Z,78.64
2023-01-03T18:09:47.903Z,78.43
2023-01-03T18:12:02.940Z,78.74
2023-01-03T18:14:05.947Z,78.33
2023-01-03T18:16:22.517Z,78.54
2023-01-03T18:18:52.471Z,79.13
2023-01-03T18:21:13.372Z,79.03
2023-01-03T18:23:37.787Z,79.19
2023-01-03T18:25:43.253Z,79.13
2023-01-03T18:27:53.272Z,79.02
2023-01-03T18:29:59.740Z,78.65
2023-01-03T18:32:03.237Z,78.71
2023-01-03T18:34:12.108Z,78.77
2023-01-03T18:36:43.700Z,79.02
2023-01-03T18:38:52.628Z,78.99
2023-01-03T18:41:06.428Z,78.75
2023-01-03T18:43:15.342Z,79.03
2023-01-03T18:45:34.178Z,79.00
2023-01-03T18:47:44.321Z,79.18
2023-01-03T18:49:54.456Z,78.82
2023-01-03T18:52:22.329Z,78.56
2023-01-03T18:54:28.712Z,78.73
2023-01-03T18:56:45.235Z,78.59
2023-01-03T18:59:10.619Z,78.78
2023-01-03T19:01:13.727Z,78.10
2023-01-03T19:03:33.436Z,78.30
2023-01-03T19:05:41.613Z,78.07
2023-01-03T19:07:51.516Z,77.33
2023-01-03T19:09:53.745Z,77.79
2023-01-03T19:12:04.188Z,77.64
2023-01-03T19:14:14.476Z,77.47
2023-01-03T19:16:52.484Z,76.84
2023-01-03T19:18:55.374Z,76.53
2023-01-03T19:20:57.483Z,77.10
2023-01-03T19:22:59.623Z,77.30
2023-01-03T19:25:14.525Z,77.27
2023-01-03T19:30:44.657Z,77.50
2023-01-03T19:32:56.081Z,76.69
2023-01-03T19:35:16.867Z,77.43
2023-01-03T19:37:23.044Z,77.23
2023-01-03T19:39:38.240Z,76.79
2023-01-03T19:42:04.301Z,77.12
2023-01-03T19:44:25.827Z,76.85
2023-01-03T19:46:30.466Z,76.85
2023-01-03T19:48:35.708Z,76.60
2023-01-03T19:50:53.393Z,77.09
2023-01-03T19:53:06.832Z,76.61
2023-01-03T19:55:45.814Z,76.76
2023-01-03T19:57:50.303Z,76.90
2023-01-03T19:59:57.490Z,76.67
2023-01-03T20:02:38.391Z,76.59
2023-01-03T20:05:00.408Z,76.20
2023-01-03T20:07:15.243Z,76.73
2023-01-03T20:09:29.598Z,76.97
2023-01-03T20:11:37.142Z,76.48
2023-01-03T20:13:56.099Z,76.37
2023-01-03T20:16:02.910Z,75.51
2023-01-03T20:18:25.458Z,75.85
2023-01-03T20:20:34.997Z,75.76
2023-01-03T20:23:04.543Z,75.94
2023-01-03T20:25:30.408Z,76.06
2023-01-03T20:27:47.115Z,75.85
2023-01-03T20:29:50.821Z,75.81
2023-01-03T20:32:09.826Z,76.94
2023-01-03T20:34:17.450Z,77.17
2023-01-03T20:36:24.554Z,76.80
2023-01-03T20:38:27.617Z,76.85
2023-01-03T20:40:37.623Z,77.01
2023-01-03T20:42:39.748Z,77.42
2023-01-03T20:45:00.322Z,77.27
2023-01-03T20:47:14.198Z,77.55
2023-01-03T20:49:31.927Z,77.43
2023-01-03T20:51:49.537Z,77.70
2023-01-03T20:53:55.105Z,77.43
2023-01-03T20:55:58.492Z,77.13
2023-01-03T20:58:02.182Z,77.41
2023-01-03T21:00:07.007Z,77.06
2023-01-03T21:02:16.809Z,77.04
2023-01-03T21:04:20.205Z,77.12
2023-01-03T21:06:25.524Z,77.65
2023-01-03T21:08:46.227Z,77.06
2023-01-03T21:10:53.096Z,76.58
2023-01-03T21:12:55.053Z,77.01
2023-01-03T21:14:57.354Z,76.63
2023-01-03T21:16:59.787Z,76.64
2023-01-03T21:19:03.668Z,76.46
2023-01-03T21:21:06.806Z,76.68
2023-01-03T21:23:17.782Z,76.44
2023-01-03T21:25:36.854Z,76.91
2023-01-03T21:27:40.549Z,76.44
2023-01-03T21:29:49.166Z,76.17
2023-01-03T21:31:51.529Z,76.53
2023-01-03T21:33:54.218Z,76.43
2023-01-03T21:35:56.538Z,76.12
2023-01-03T21:37:58.898Z,75.94
2023-01-03T21:40:01.114Z,76.52
2023-01-03T21:42:24.049Z,76.10
2023-01-03T21:44:26.438Z,75.99
2023-01-03T21:46:30.391Z,75.89
2023-01-03T21:48:32.508Z,76.40
2023-01-03T21:50:39.284Z,75.95
2023-01-03T21:52:43.414Z,76.26
2023-01-03T21:54:45.595Z,76.06
2023-01-03T21:56:47.790Z,76.25
2023-01-03T21:58:50.959Z,76.01
2023-01-03T22:00:53.226Z,76.30
2023-01-03T22:03:13.797Z,76.42
2023-01-03T22:05:15.984Z,76.09
2023-01-03T22:07:22.188Z,75.88
2023-01-03T22:09:44.201Z,75.55
2023-01-03T22:11:48.619Z,75.99
2023-01-03T22:13:56.352Z,75.81
2023-01-03T22:16:04.472Z,76.25
2023-01-03T22:18:09.293Z,75.79
2023-01-03T22:20:15.592Z,75.75
2023-01-03T22:22:17.811Z,76.16
2023-01-03T22:24:19.809Z,76.15
2023-01-03T22:26:22.056Z,76.67
2023-01-03T22:28:25.361Z,76.35
2023-01-03T22:30:27.805Z,76.61
2023-01-03T22:32:30.185Z,76.72
2023-01-03T22:34:32.468Z,76.35
2023-01-03T22:36:34.552Z,76.91
2023-01-03T22:38:38.063Z,76.42
2023-01-03T22:40:40.207Z,76.24
2023-01-03T22:42:42.248Z,76.41
2023-01-03T22:44:44.253Z,75.75
2023-01-03T22:46:46.187Z,75.46
2023-01-03T22:48:48.178Z,75.82
2023-01-03T22:50:50.138Z,75.77
2023-01-03T22:52:54.395Z,76.22
2023-01-03T22:54:57.289Z,75.68
2023-01-03T22:57:00.021Z,76.39
2023-01-03T22:59:03.040Z,76.00
2023-01-03T23:01:13.608Z,75.87
2023-01-03T23:03:15.639Z,76.64
2023-01-03T23:05:17.602Z,76.41
2023-01-03T23:07:19.526Z,76.49
2023-01-03T23:09:22.391Z,77.20
2023-01-03T23:11:45.723Z,76.43
2023-01-03T23:13:47.771Z,76.74
2023-01-03T23:15:49.711Z,77.02
2023-01-03T23:17:57.444Z,77.19
2023-01-03T23:19:59.430Z,77.22
2023-01-03T23:22:01.281Z,77.62
2023-01-03T23:24:03.525Z,77.59
2023-01-03T23:26:05.645Z,77.77
2023-01-03T23:28:07.483Z,77.94
2023-01-03T23:30:10.933Z,77.77
2023-01-03T23:32:12.929Z,78.43
2023-01-03T23:34:15.795Z,78.60
2023-01-03T23:36:17.992Z,78.16
2023-01-03T23:38:20.044Z,78.07
2023-01-03T23:40:21.975Z,78.16
2023-01-03T23:42:23.964Z,78.23
2023-01-03T23:44:26.824Z,78.86
2023-01-03T23:46:28.880Z,78.66
2023-01-03T23:48:31.763Z,78.96
2023-01-03T23:50:33.767Z,79.18
2023-01-03T23:52:35.690Z,78.87
2023-01-03T23:54:38.602Z,78.80
2023-01-03T23:56:40.568Z,78.63
2023-01-03T23:58:43.019Z,78.86
